createdAt,value
2023-01-30T00:01:06.357Z,101539.44
2023-01-30T00:03:34.238Z,101545.72
2023-01-30T00:06:00.699Z,101541.03
2023-01-30T00:08:27.207Z,101524.59
2023-01-30T00:10:53.653Z,101525.06
2023-01-30T00:13:20.151Z,101520.59
2023-01-30T00:15:48.142Z,101520.03
2023-01-30T00:18:14.612Z,101516.47
2023-01-30T00:20:41.032Z,101515.59
2023-01-30T00:23:07.420Z,101507.66
2023-01-30T00:25:33.996Z,101510.28
2023-01-30T00:28:01.511Z,101501.28
2023-01-30T00:30:28.378Z,101487.91
2023-01-30T00:32:56.550Z,101485.22
2023-01-30T00:35:28.340Z,101484.41
2023-01-30T00:37:58.664Z,101481.63
2023-01-30T00:40:26.967Z,101483.41
2023-01-30T00:46:03.965Z,101486.75
2023-01-30T00:48:30.837Z,101479.91
2023-01-30T00:50:57.414Z,101477.28
2023-01-30T00:53:23.962Z,101467.34
2023-01-30T00:55:54.777Z,101462.81
2023-01-30T00:58:23.055Z,101464.72
2023-01-30T01:00:50.967Z,101471.09
2023-01-30T01:03:17.781Z,101466.53
2023-01-30T01:05:44.544Z,101464.56
2023-01-30T01:08:11.992Z,101462.59
2023-01-30T01:10:38.871Z,101458.19
2023-01-30T01:13:06.989Z,101455.41
2023-01-30T01:15:34.294Z,101458.19
2023-01-30T01:18:00.710Z,101456.31
2023-01-30T01:20:27.283Z,101454.44
2023-01-30T01:22:55.159Z,101449.75
2023-01-30T01:25:22.791Z,101457.72
2023-01-30T01:27:49.967Z,101444.34
2023-01-30T01:30:17.130Z,101446.03
2023-01-30T01:32:43.961Z,101443.22
2023-01-30T01:35:10.495Z,101443.22
2023-01-30T01:37:37.069Z,101440.53
2023-01-30T01:40:23.687Z,101432.59
2023-01-30T01:42:51.023Z,101445.72
2023-01-30T01:45:23.088Z,101440.53
2023-01-30T01:47:59.068Z,101441.47
2023-01-30T01:50:31.376Z,101449.41
2023-01-30T01:53:00.777Z,101440.44
2023-01-30T01:55:28.062Z,101439.50
2023-01-30T01:58:00.004Z,101429.47
2023-01-30T02:00:26.927Z,101429.47
2023-01-30T02:03:00.042Z,101434.94
2023-01-30T02:05:34.928Z,101425.88
2023-01-30T02:08:15.805Z,101428.56
2023-01-30T02:11:00.592Z,101429.56
2023-01-30T02:13:28.079Z,101429.38
2023-01-30T02:15:58.585Z,101427.59
2023-01-30T02:18:25.680Z,101440.81
2023-01-30T02:21:06.242Z,101434.19
2023-01-30T02:24:03.526Z,101424.25
2023-01-30T02:26:52.481Z,101437.22
2023-01-30T02:29:18.998Z,101431.72
2023-01-30T02:32:06.865Z,101428.91
2023-01-30T02:34:59.795Z,101443.22
2023-01-30T02:37:49.430Z,101448.31
2023-01-30T02:40:36.598Z,101458.31
2023-01-30T02:43:12.031Z,101443.41
2023-01-30T02:45:48.357Z,101449.66
2023-01-30T02:48:22.979Z,101421.03
2023-01-30T02:50:54.567Z,101430.66
2023-01-30T02:53:21.494Z,101435.91
2023-01-30T02:55:47.938Z,101425.00
2023-01-30T02:58:16.569Z,101423.13
2023-01-30T03:01:35.552Z,101417.75
2023-01-30T03:04:31.776Z,101414.28
2023-01-30T03:07:09.788Z,101410.66
2023-01-30T03:09:51.284Z,101408.03
2023-01-30T03:12:32.779Z,101415.88
2023-01-30T03:15:05.420Z,101417.75
2023-01-30T03:17:33.338Z,101414.16
2023-01-30T03:20:00.143Z,101410.59
2023-01-30T03:22:26.685Z,101408.91
2023-01-30T03:24:54.527Z,101416.41
2023-01-30T03:27:21.939Z,101411.16
2023-01-30T03:29:48.384Z,101412.91
2023-01-30T03:32:14.764Z,101409.41
2023-01-30T03:34:41.826Z,101410.22
2023-01-30T03:37:08.927Z,101421.03
2023-01-30T03:39:35.498Z,101424.72
2023-01-30T03:42:01.934Z,101420.16
2023-01-30T03:44:28.319Z,101420.56
2023-01-30T03:46:54.710Z,101410.78
2023-01-30T03:49:21.555Z,101419.91
2023-01-30T03:51:48.083Z,101402.06
2023-01-30T03:54:14.507Z,101394.97
2023-01-30T03:56:40.909Z,101391.44
2023-01-30T03:59:07.289Z,101403.03
2023-01-30T04:01:33.781Z,101408.25
2023-01-30T04:04:00.250Z,101403.94
2023-01-30T04:06:26.653Z,101405.59
2023-01-30T04:08:55.902Z,101411.91
2023-01-30T04:11:22.478Z,101408.25
2023-01-30T04:13:48.869Z,101407.53
2023-01-30T04:16:25.000Z,101401.41
2023-01-30T04:18:51.668Z,101417.00
2023-01-30T04:21:18.222Z,101417.56
2023-01-30T04:23:44.911Z,101420.38
2023-01-30T04:26:12.271Z,101424.09
2023-01-30T04:28:38.815Z,101422.44
2023-01-30T04:31:06.382Z,101431.66
2023-01-30T04:33:36.036Z,101436.44
2023-01-30T04:36:04.262Z,101426.63
2023-01-30T04:38:32.394Z,101441.75
2023-01-30T04:40:59.419Z,101443.63
2023-01-30T04:43:27.593Z,101441.84
2023-01-30T04:45:54.813Z,101444.59
2023-01-30T04:48:23.511Z,101445.81
2023-01-30T04:50:52.670Z,101453.03
2023-01-30T04:53:20.546Z,101453.44
2023-01-30T04:55:47.767Z,101445.91
2023-01-30T04:58:14.566Z,101440.97
2023-01-30T05:00:41.202Z,101454.28
2023-01-30T05:03:07.767Z,101448.72
2023-01-30T05:05:34.438Z,101456.19
2023-01-30T05:08:01.585Z,101468.00
2023-01-30T05:10:28.012Z,101467.19
2023-01-30T05:12:54.463Z,101459.72
2023-01-30T05:15:21.272Z,101472.63
2023-01-30T05:17:47.757Z,101476.25
2023-01-30T05:20:14.572Z,101470.84
2023-01-30T05:22:41.086Z,101491.41
2023-01-30T05:25:08.031Z,101476.03
2023-01-30T05:27:34.484Z,101467.19
2023-01-30T05:30:01.025Z,101476.03
2023-01-30T05:32:30.374Z,101471.59
2023-01-30T05:34:56.848Z,101482.00
2023-01-30T05:37:24.432Z,101473.09
2023-01-30T05:39:50.844Z,101470.22
2023-01-30T05:42:17.351Z,101461.72
2023-01-30T05:44:43.825Z,101471.09
2023-01-30T05:47:10.326Z,101471.41
2023-01-30T05:49:36.780Z,101477.69
2023-01-30T05:52:03.246Z,101466.06
2023-01-30T05:54:29.711Z,101472.38
2023-01-30T05:56:56.205Z,101465.00
2023-01-30T05:59:22.824Z,101456.94
2023-01-30T06:01:49.268Z,101461.22
2023-01-30T06:04:15.717Z,101470.97
2023-01-30T06:06:42.297Z,101461.28
2023-01-30T06:09:10.567Z,101472.41
2023-01-30T06:11:36.997Z,101476.97
2023-01-30T06:14:03.418Z,101471.06
2023-01-30T06:16:29.925Z,101475.72
2023-01-30T06:18:56.453Z,101474.00
2023-01-30T06:21:22.948Z,101480.53
2023-01-30T06:23:49.499Z,101462.91
2023-01-30T06:26:15.934Z,101468.50
2023-01-30T06:28:42.722Z,101459.28
2023-01-30T06:31:09.612Z,101468.16
2023-01-30T06:33:36.857Z,101473.59
2023-01-30T06:36:03.712Z,101458.28
2023-01-30T06:38:30.186Z,101459.09
2023-01-30T06:40:56.558Z,101466.44
2023-01-30T06:43:22.992Z,101479.03
2023-01-30T06:45:49.464Z,101468.59
2023-01-30T06:48:15.937Z,101467.63
2023-01-30T06:50:42.410Z,101468.38
2023-01-30T06:53:09.110Z,101461.09
2023-01-30T06:55:36.356Z,101469.13
2023-01-30T06:58:03.078Z,101485.22
2023-01-30T07:00:30.500Z,101485.41
2023-01-30T07:02:57.072Z,101498.69
2023-01-30T07:05:23.556Z,101510.78
2023-01-30T07:07:50.045Z,101489.19
2023-01-30T07:10:16.810Z,101492.97
2023-01-30T07:12:44.699Z,101498.75
2023-01-30T07:15:11.351Z,101517.53
2023-01-30T07:17:40.379Z,101513.38
2023-01-30T07:20:07.617Z,101517.97
2023-01-30T07:22:34.200Z,101514.28
2023-01-30T07:25:00.634Z,101535.13
2023-01-30T07:27:27.149Z,101527.22
2023-01-30T07:29:53.551Z,101520.13
2023-01-30T07:32:20.160Z,101517.09
2023-01-30T07:34:47.431Z,101520.59
2023-01-30T07:37:14.945Z,101506.13
2023-01-30T07:39:41.675Z,101497.91
2023-01-30T07:42:08.276Z,101505.81
2023-01-30T07:44:34.817Z,101515.78
2023-01-30T07:47:01.397Z,101529.16
2023-01-30T07:49:28.072Z,101531.59
2023-01-30T07:51:54.533Z,101539.47
2023-01-30T07:54:20.981Z,101539.31
2023-01-30T07:56:47.392Z,101525.78
2023-01-30T07:59:13.955Z,101537.34
2023-01-30T08:01:40.429Z,101537.34
2023-01-30T08:04:06.891Z,101540.03
2023-01-30T08:06:38.871Z,101549.81
2023-01-30T08:09:06.994Z,101551.69
2023-01-30T08:11:34.303Z,101538.75
2023-01-30T08:14:00.862Z,101548.50
2023-01-30T08:16:27.419Z,101556.63
2023-01-30T08:18:53.908Z,101561.03
2023-01-30T08:21:20.521Z,101544.94
2023-01-30T08:23:47.057Z,101538.50
2023-01-30T08:26:13.666Z,101561.09
2023-01-30T08:28:40.803Z,101555.03
2023-01-30T08:31:11.703Z,101567.69
2023-01-30T08:33:38.248Z,101567.78
2023-01-30T08:36:05.142Z,101566.69
2023-01-30T08:38:31.725Z,101574.97
2023-01-30T08:40:59.392Z,101586.41
2023-01-30T08:43:25.813Z,101557.88
2023-01-30T08:45:56.258Z,101606.03
2023-01-30T08:48:23.432Z,101581.63
2023-01-30T08:50:54.462Z,101614.31
2023-01-30T08:53:21.202Z,101617.13
2023-01-30T08:55:51.166Z,101601.84
2023-01-30T08:58:17.651Z,101608.06
2023-01-30T09:00:45.327Z,101627.94
2023-01-30T09:03:13.821Z,101624.13
2023-01-30T09:05:40.584Z,101622.91
2023-01-30T09:08:07.076Z,101631.91
2023-01-30T09:10:33.528Z,101624.50
2023-01-30T09:12:59.981Z,101616.41
2023-01-30T09:15:26.819Z,101618.13
2023-01-30T09:17:53.309Z,101603.84
2023-01-30T09:20:20.742Z,101608.13
2023-01-30T09:22:47.425Z,101617.84
2023-01-30T09:25:13.896Z,101627.00
2023-01-30T09:27:44.357Z,101625.19
2023-01-30T09:30:11.723Z,101631.41
2023-01-30T09:32:38.221Z,101623.84
2023-01-30T09:35:05.093Z,101633.88
2023-01-30T09:37:31.567Z,101636.19
2023-01-30T09:39:57.933Z,101635.03
2023-01-30T09:42:45.782Z,101637.03
2023-01-30T09:45:35.094Z,101641.34
2023-01-30T09:48:17.813Z,101642.06
2023-01-30T09:51:19.247Z,101640.97
2023-01-30T09:54:14.000Z,101644.41
2023-01-30T09:56:40.871Z,101655.19
2023-01-30T09:59:19.570Z,101667.63
2023-01-30T10:02:12.950Z,101650.50
2023-01-30T10:05:00.627Z,101658.63
2023-01-30T10:07:49.681Z,101654.63
2023-01-30T10:10:35.255Z,101664.38
2023-01-30T10:13:29.127Z,101680.09
2023-01-30T10:16:07.903Z,101675.41
2023-01-30T10:19:09.739Z,101674.31
2023-01-30T10:21:54.371Z,101691.31
2023-01-30T10:24:28.744Z,101693.34
2023-01-30T10:26:56.808Z,101697.88
2023-01-30T10:29:57.044Z,101700.88
2023-01-30T10:32:33.853Z,101691.13
2023-01-30T10:35:06.368Z,101703.13
2023-01-30T10:37:40.505Z,101702.34
2023-01-30T10:40:20.777Z,101685.78
2023-01-30T10:43:17.109Z,101685.75
2023-01-30T10:46:11.676Z,101699.25
2023-01-30T10:49:06.349Z,101683.47
2023-01-30T10:52:02.116Z,101700.38
2023-01-30T10:54:31.603Z,101697.03
2023-01-30T10:57:13.856Z,101701.84
2023-01-30T10:59:45.263Z,101707.00
2023-01-30T11:02:36.709Z,101703.13
2023-01-30T11:05:14.186Z,101707.44
2023-01-30T11:07:43.797Z,101709.31
2023-01-30T11:10:25.026Z,101717.31
2023-01-30T11:13:18.097Z,101728.78
2023-01-30T11:15:48.158Z,101713.50
2023-01-30T11:21:07.734Z,101737.75
2023-01-30T11:23:39.490Z,101741.84
2023-01-30T11:26:11.546Z,101729.25
2023-01-30T11:28:43.908Z,101735.03
2023-01-30T11:31:31.579Z,101736.16
2023-01-30T11:34:14.770Z,101738.34
2023-01-30T11:36:42.018Z,101739.97
2023-01-30T11:39:15.791Z,101752.97
2023-01-30T11:41:58.696Z,101730.56
2023-01-30T11:44:36.410Z,101738.25
2023-01-30T11:47:15.230Z,101742.81
2023-01-30T11:50:05.056Z,101752.25
2023-01-30T11:52:37.299Z,101749.84
2023-01-30T11:55:10.968Z,101746.66
2023-01-30T11:57:43.144Z,101753.13
2023-01-30T12:00:20.260Z,101750.19
2023-01-30T12:02:48.326Z,101753.81
2023-01-30T12:05:34.495Z,101753.38
2023-01-30T12:08:31.269Z,101758.34
2023-01-30T12:11:25.682Z,101763.94
2023-01-30T12:13:55.124Z,101765.22
2023-01-30T12:16:28.052Z,101765.72
2023-01-30T12:19:12.984Z,101757.53
2023-01-30T12:21:58.872Z,101766.41
2023-01-30T12:24:36.131Z,101769.22
2023-01-30T12:27:48.531Z,101780.44
2023-01-30T12:30:29.518Z,101773.84
2023-01-30T12:35:47.125Z,101784.56
2023-01-30T12:38:31.737Z,101783.75
2023-01-30T12:41:29.278Z,101781.34
2023-01-30T12:44:04.432Z,101777.94
2023-01-30T12:46:30.881Z,101783.28
2023-01-30T12:49:21.781Z,101788.59
2023-01-30T12:52:25.231Z,101789.22
2023-01-30T12:55:02.132Z,101792.69
2023-01-30T12:57:48.726Z,101777.09
2023-01-30T13:00:24.110Z,101790.41
2023-01-30T13:03:19.269Z,101798.50
2023-01-30T13:05:57.963Z,101809.47
2023-01-30T13:08:34.552Z,101794.06
2023-01-30T13:11:06.486Z,101811.34
2023-01-30T13:14:02.203Z,101817.41
2023-01-30T13:16:36.337Z,101828.25
2023-01-30T13:19:40.767Z,101815.09
2023-01-30T13:22:22.816Z,101831.00
2023-01-30T13:25:10.830Z,101826.00
2023-01-30T13:27:40.319Z,101842.50
2023-01-30T13:30:14.545Z,101844.50
2023-01-30T13:32:47.199Z,101850.47
2023-01-30T13:35:25.504Z,101851.59
2023-01-30T13:37:52.755Z,101851.84
2023-01-30T13:40:23.783Z,101856.94
2023-01-30T13:43:07.108Z,101854.88
2023-01-30T13:45:36.695Z,101864.34
2023-01-30T13:48:34.276Z,101849.72
2023-01-30T13:51:32.674Z,101864.56
2023-01-30T13:54:19.909Z,101877.16
2023-01-30T13:57:01.111Z,101877.69
2023-01-30T13:59:46.982Z,101893.13
2023-01-30T14:02:19.543Z,101895.53
2023-01-30T14:04:54.830Z,101897.88
2023-01-30T14:07:25.760Z,101903.38
2023-01-30T14:10:17.277Z,101913.31
2023-01-30T14:12:49.666Z,101919.84
2023-01-30T14:15:19.727Z,101933.47
2023-01-30T14:17:59.325Z,101935.56
2023-01-30T14:20:31.329Z,101946.19
2023-01-30T14:23:00.386Z,101957.75
2023-01-30T14:25:29.767Z,101967.97
2023-01-30T14:28:16.558Z,101966.00
2023-01-30T14:30:54.668Z,101962.59
2023-01-30T14:33:21.082Z,101977.03
2023-01-30T14:36:00.606Z,101991.34
2023-01-30T14:38:30.782Z,101996.94
2023-01-30T14:40:59.989Z,101979.19
2023-01-30T14:43:41.587Z,101983.22
2023-01-30T14:46:20.044Z,101995.09
2023-01-30T14:48:56.829Z,101995.31
2023-01-30T14:51:25.083Z,102012.34
2023-01-30T14:54:13.930Z,102017.69
2023-01-30T14:56:46.661Z,102034.84
2023-01-30T14:59:16.028Z,102029.03
2023-01-30T15:02:00.704Z,102033.91
2023-01-30T15:04:32.257Z,102038.72
2023-01-30T15:07:03.018Z,102040.50
2023-01-30T15:09:31.861Z,102043.19
2023-01-30T15:12:37.400Z,102046.94
2023-01-30T15:15:09.985Z,102048.78
2023-01-30T15:18:08.320Z,102055.94
2023-01-30T15:21:08.648Z,102058.38
2023-01-30T15:23:43.421Z,102061.97
2023-01-30T15:26:38.827Z,102087.09
2023-01-30T15:29:24.223Z,102093.66
2023-01-30T15:31:55.282Z,102089.28
2023-01-30T15:34:22.328Z,102086.69
2023-01-30T15:36:49.262Z,102084.22
2023-01-30T15:39:20.527Z,102093.25
2023-01-30T15:41:47.881Z,102093.38
2023-01-30T15:44:14.186Z,102098.69
2023-01-30T15:46:54.320Z,102100.78
2023-01-30T15:49:39.468Z,102108.13
2023-01-30T15:52:11.857Z,102119.00
2023-01-30T15:54:38.282Z,102119.69
2023-01-30T15:57:04.921Z,102119.97
2023-01-30T15:59:38.244Z,102123.59
2023-01-30T16:02:15.044Z,102139.75
2023-01-30T16:04:41.535Z,102133.75
2023-01-30T16:07:15.688Z,102137.47
2023-01-30T16:09:45.548Z,102144.31
2023-01-30T16:12:26.674Z,102154.06
2023-01-30T16:15:05.719Z,102142.81
2023-01-30T16:17:39.091Z,102147.38
2023-01-30T16:20:07.679Z,102162.47
2023-01-30T16:22:34.963Z,102171.47
2023-01-30T16:25:04.130Z,102175.97
2023-01-30T16:27:34.160Z,102183.03
2023-01-30T16:30:07.642Z,102186.53
2023-01-30T16:32:34.559Z,102198.13
2023-01-30T16:35:27.446Z,102211.59
2023-01-30T16:37:56.918Z,102214.44
2023-01-30T16:40:25.275Z,102219.75
2023-01-30T16:42:57.089Z,102220.88
2023-01-30T16:45:35.496Z,102230.81
2023-01-30T16:48:30.816Z,102232.66
2023-01-30T16:51:00.393Z,102235.31
2023-01-30T16:53:29.440Z,102236.22
2023-01-30T16:55:59.047Z,102245.31
2023-01-30T16:58:32.379Z,102256.88
2023-01-30T17:01:01.557Z,102261.44
2023-01-30T17:03:36.824Z,102255.22
2023-01-30T17:06:12.505Z,102270.63
2023-01-30T17:08:48.043Z,102266.22
2023-01-30T17:11:41.767Z,102273.28
2023-01-30T17:14:14.102Z,102278.53
2023-01-30T17:16:42.921Z,102285.63
2023-01-30T17:19:09.598Z,102282.94
2023-01-30T17:21:48.429Z,102289.91
2023-01-30T17:24:18.381Z,102291.50
2023-01-30T17:26:49.090Z,102295.19
2023-01-30T17:29:24.052Z,102296.47
2023-01-30T17:32:01.156Z,102302.97
2023-01-30T17:34:28.899Z,102310.28
2023-01-30T17:36:55.978Z,102312.34
2023-01-30T17:39:25.669Z,102320.44
2023-01-30T17:41:52.362Z,102316.94
2023-01-30T17:44:18.846Z,102312.53
2023-01-30T17:46:49.360Z,102313.41
2023-01-30T17:49:23.545Z,102311.69
2023-01-30T17:51:51.498Z,102321.66
2023-01-30T17:54:20.005Z,102329.69
2023-01-30T17:56:51.649Z,102325.06
2023-01-30T17:59:19.812Z,102334.88
2023-01-30T18:01:48.689Z,102328.50
2023-01-30T18:04:15.893Z,102333.66
2023-01-30T18:06:45.511Z,102333.56
2023-01-30T18:09:14.956Z,102330.78
2023-01-30T18:11:41.478Z,102332.28
2023-01-30T18:14:07.946Z,102334.81
2023-01-30T18:16:34.351Z,102334.00
2023-01-30T18:19:05.311Z,102340.94
2023-01-30T18:21:34.012Z,102341.63
2023-01-30T18:24:00.722Z,102354.03
2023-01-30T18:26:27.385Z,102355.81
2023-01-30T18:28:54.293Z,102368.16
2023-01-30T18:31:23.740Z,102386.19
2023-01-30T18:33:51.178Z,102386.78
2023-01-30T18:36:19.317Z,102392.72
2023-01-30T18:38:46.532Z,102387.75
2023-01-30T18:41:15.273Z,102384.53
2023-01-30T18:43:42.639Z,102389.13
2023-01-30T18:46:14.538Z,102393.56
2023-01-30T18:48:41.989Z,102399.13
2023-01-30T18:51:13.053Z,102392.88
2023-01-30T18:53:40.416Z,102398.16
2023-01-30T18:56:08.687Z,102401.50
2023-01-30T18:58:35.784Z,102388.00
2023-01-30T19:01:14.124Z,102393.22
2023-01-30T19:03:41.494Z,102401.16
2023-01-30T19:06:11.670Z,102405.69
2023-01-30T19:08:38.355Z,102405.66
2023-01-30T19:11:26.058Z,102403.00
2023-01-30T19:13:53.720Z,102408.25
2023-01-30T19:16:21.362Z,102412.72
2023-01-30T19:18:48.041Z,102419.06
2023-01-30T19:21:14.456Z,102425.50
2023-01-30T19:23:40.833Z,102426.44
2023-01-30T19:26:07.572Z,102421.09
2023-01-30T19:28:33.967Z,102422.91
2023-01-30T19:31:05.877Z,102420.28
2023-01-30T19:33:33.585Z,102420.34
2023-01-30T19:36:15.808Z,102417.75
2023-01-30T19:38:43.291Z,102418.66
2023-01-30T19:41:18.776Z,102425.81
2023-01-30T19:43:45.237Z,102425.81
2023-01-30T19:46:12.109Z,102426.56
2023-01-30T19:48:40.304Z,102427.56
2023-01-30T19:51:27.243Z,102426.78
2023-01-30T19:53:56.029Z,102436.56
2023-01-30T19:56:25.285Z,102437.28
2023-01-30T19:58:54.933Z,102439.94
2023-01-30T20:01:23.402Z,102443.47
2023-01-30T20:03:50.154Z,102433.75
2023-01-30T20:06:22.671Z,102448.09
2023-01-30T20:08:54.061Z,102448.84
2023-01-30T20:11:21.900Z,102449.69
2023-01-30T20:13:49.507Z,102440.72
2023-01-30T20:16:21.310Z,102452.34
2023-01-30T20:18:53.537Z,102450.75
2023-01-30T20:21:21.636Z,102449.13
2023-01-30T20:23:48.941Z,102447.34
2023-01-30T20:26:17.928Z,102455.34
2023-01-30T20:28:44.494Z,102459.84
2023-01-30T20:31:16.382Z,102455.38
2023-01-30T20:33:43.010Z,102451.59
2023-01-30T20:36:12.008Z,102447.06
2023-01-30T20:38:40.711Z,102432.91
2023-01-30T20:41:12.626Z,102422.28
2023-01-30T20:43:40.972Z,102428.47
2023-01-30T20:46:29.124Z,102430.19
2023-01-30T20:48:57.836Z,102432.94
2023-01-30T20:51:26.779Z,102436.44
2023-01-30T20:53:55.646Z,102439.16
2023-01-30T20:56:23.346Z,102423.09
2023-01-30T20:58:50.278Z,102414.00
2023-01-30T21:01:23.258Z,102405.91
2023-01-30T21:03:52.246Z,102407.72
2023-01-30T21:06:41.939Z,102407.84
2023-01-30T21:09:12.403Z,102414.16
2023-01-30T21:11:39.568Z,102410.63
2023-01-30T21:14:06.354Z,102411.44
2023-01-30T21:16:34.825Z,102415.09
2023-01-30T21:19:04.511Z,102408.03
2023-01-30T21:21:38.166Z,102408.97
2023-01-30T21:24:08.397Z,102411.53
2023-01-30T21:26:37.191Z,102421.31
2023-01-30T21:29:06.318Z,102422.16
2023-01-30T21:31:34.728Z,102432.75
2023-01-30T21:34:01.685Z,102431.84
2023-01-30T21:36:29.107Z,102438.16
2023-01-30T21:39:14.158Z,102445.19
2023-01-30T21:41:51.831Z,102450.59
2023-01-30T21:44:20.086Z,102456.97
2023-01-30T21:46:48.198Z,102448.94
2023-01-30T21:49:18.934Z,102463.13
2023-01-30T21:51:48.086Z,102453.28
2023-01-30T21:54:15.843Z,102454.19
2023-01-30T21:56:42.679Z,102459.44
2023-01-30T21:59:09.589Z,102450.47
2023-01-30T22:01:37.808Z,102444.38
2023-01-30T22:04:06.186Z,102441.69
2023-01-30T22:06:33.388Z,102439.94
2023-01-30T22:09:01.505Z,102425.78
2023-01-30T22:11:29.440Z,102425.91
2023-01-30T22:13:57.264Z,102421.56
2023-01-30T22:16:27.071Z,102425.34
2023-01-30T22:18:56.140Z,102419.13
2023-01-30T22:21:25.069Z,102420.09
2023-01-30T22:23:53.132Z,102410.28
2023-01-30T22:26:21.288Z,102408.66
2023-01-30T22:28:48.055Z,102413.22
2023-01-30T22:31:17.892Z,102422.09
2023-01-30T22:33:52.087Z,102421.25
2023-01-30T22:36:19.344Z,102410.56
2023-01-30T22:38:47.652Z,102415.19
2023-01-30T22:41:17.172Z,102413.47
2023-01-30T22:43:55.396Z,102406.34
2023-01-30T22:46:25.109Z,102408.13
2023-01-30T22:48:51.936Z,102409.94
2023-01-30T22:51:23.523Z,102411.78
2023-01-30T22:53:55.243Z,102403.03
2023-01-30T22:56:25.151Z,102408.47
2023-01-30T22:58:51.801Z,102405.94
2023-01-30T23:01:29.843Z,102401.47
2023-01-30T23:03:57.887Z,102404.13
2023-01-30T23:06:25.300Z,102401.44
2023-01-30T23:08:54.021Z,102397.84
2023-01-30T23:11:27.583Z,102404.16
2023-01-30T23:13:56.364Z,102405.94
2023-01-30T23:16:26.116Z,102403.22
2023-01-30T23:18:56.389Z,102412.97
2023-01-30T23:21:28.477Z,102406.63
2023-01-30T23:24:00.975Z,102403.91
2023-01-30T23:26:30.553Z,102395.78
2023-01-30T23:28:57.171Z,102396.56
2023-01-30T23:31:25.773Z,102394.75
2023-01-30T23:33:54.702Z,102390.28
2023-01-30T23:36:21.853Z,102388.47
2023-01-30T23:38:50.067Z,102384.91
2023-01-30T23:41:19.337Z,102385.63
2023-01-30T23:43:46.987Z,102388.22
2023-01-30T23:46:19.943Z,102384.72
2023-01-30T23:48:48.397Z,102374.03
2023-01-30T23:51:16.872Z,102369.56
2023-01-30T23:53:43.989Z,102359.72
2023-01-30T23:56:11.583Z,102355.09
2023-01-30T23:58:38.753Z,102344.41
